sensor_id;sensor_type;location;lat;lon;timestamp;P1;durP1;ratioP1;P2;durP2;ratioP2
11805;SDS011;5960;42.602;23.482;2022-08-21T00:01:32;3.05;;;1.30;;
11805;SDS011;5960;42.602;23.482;2022-08-21T00:04:03;0.98;;;0.80;;
11805;SDS011;5960;42.602;23.482;2022-08-21T00:06:30;0.90;;;0.90;;
11805;SDS011;5960;42.602;23.482;2022-08-21T00:08:58;2.00;;;1.33;;
11805;SDS011;5960;42.602;23.482;2022-08-21T00:11:24;1.55;;;0.98;;
11805;SDS011;5960;42.602;23.482;2022-08-21T00:13:53;0.80;;;0.80;;
11805;SDS011;5960;42.602;23.482;2022-08-21T00:16:20;1.10;;;1.00;;
11805;SDS011;5960;42.602;23.482;2022-08-21T00:18:48;2.25;;;1.40;;
11805;SDS011;5960;42.602;23.482;2022-08-21T00:21:15;1.58;;;1.35;;
11805;SDS011;5960;42.602;23.482;2022-08-21T00:23:43;1.55;;;1.10;;
11805;SDS011;5960;42.602;23.482;2022-08-21T00:26:10;1.35;;;1.20;;
11805;SDS011;5960;42.602;23.482;2022-08-21T00:28:37;1.52;;;1.20;;
11805;SDS011;5960;42.602;23.482;2022-08-21T00:31:05;2.28;;;1.70;;
11805;SDS011;5960;42.602;23.482;2022-08-21T00:33:31;1.48;;;1.10;;
11805;SDS011;5960;42.602;23.482;2022-08-21T00:35:59;1.08;;;0.95;;
11805;SDS011;5960;42.602;23.482;2022-08-21T00:38:26;1.77;;;1.45;;
11805;SDS011;5960;42.602;23.482;2022-08-21T00:40:53;2.60;;;1.55;;
11805;SDS011;5960;42.602;23.482;2022-08-21T00:43:22;1.73;;;1.48;;
11805;SDS011;5960;42.602;23.482;2022-08-21T00:45:52;1.60;;;1.08;;
11805;SDS011;5960;42.602;23.482;2022-08-21T00:48:22;2.05;;;1.48;;
11805;SDS011;5960;42.602;23.482;2022-08-21T00:50:50;3.50;;;1.98;;
11805;SDS011;5960;42.602;23.482;2022-08-21T00:53:21;2.22;;;2.03;;
11805;SDS011;5960;42.602;23.482;2022-08-21T00:55:49;1.70;;;1.27;;
11805;SDS011;5960;42.602;23.482;2022-08-21T00:58:16;1.95;;;1.00;;
11805;SDS011;5960;42.602;23.482;2022-08-21T01:00:45;1.08;;;1.00;;
11805;SDS011;5960;42.602;23.482;2022-08-21T01:03:14;2.00;;;1.23;;
11805;SDS011;5960;42.602;23.482;2022-08-21T01:05:43;1.80;;;1.40;;
11805;SDS011;5960;42.602;23.482;2022-08-21T01:08:11;2.22;;;1.42;;
11805;SDS011;5960;42.602;23.482;2022-08-21T01:10:41;1.52;;;0.90;;
11805;SDS011;5960;42.602;23.482;2022-08-21T01:13:09;1.15;;;1.05;;
11805;SDS011;5960;42.602;23.482;2022-08-21T01:15:39;1.63;;;1.10;;
11805;SDS011;5960;42.602;23.482;2022-08-21T01:18:09;1.20;;;1.10;;
11805;SDS011;5960;42.602;23.482;2022-08-21T01:20:38;2.08;;;1.58;;
11805;SDS011;5960;42.602;23.482;2022-08-21T01:23:09;1.35;;;1.25;;
11805;SDS011;5960;42.602;23.482;2022-08-21T01:25:35;1.45;;;1.35;;
11805;SDS011;5960;42.602;23.482;2022-08-21T01:28:04;1.05;;;0.90;;
11805;SDS011;5960;42.602;23.482;2022-08-21T01:30:39;2.20;;;1.27;;
11805;SDS011;5960;42.602;23.482;2022-08-21T01:33:08;2.05;;;1.25;;
11805;SDS011;5960;42.602;23.482;2022-08-21T01:35:35;1.65;;;1.25;;
11805;SDS011;5960;42.602;23.482;2022-08-21T01:38:02;1.13;;;0.98;;
11805;SDS011;5960;42.602;23.482;2022-08-21T01:40:30;2.50;;;0.88;;
11805;SDS011;5960;42.602;23.482;2022-08-21T01:42:57;0.98;;;0.90;;
11805;SDS011;5960;42.602;23.482;2022-08-21T01:45:24;1.92;;;1.23;;
11805;SDS011;5960;42.602;23.482;2022-08-21T01:47:51;1.10;;;0.80;;
11805;SDS011;5960;42.602;23.482;2022-08-21T01:50:19;0.55;;;0.50;;
11805;SDS011;5960;42.602;23.482;2022-08-21T01:52:46;1.13;;;0.63;;
11805;SDS011;5960;42.602;23.482;2022-08-21T01:55:14;0.57;;;0.57;;
11805;SDS011;5960;42.602;23.482;2022-08-21T01:57:45;0.93;;;0.93;;
11805;SDS011;5960;42.602;23.482;2022-08-21T02:00:13;0.75;;;0.70;;
11805;SDS011;5960;42.602;23.482;2022-08-21T02:02:41;0.80;;;0.60;;
11805;SDS011;5960;42.602;23.482;2022-08-21T02:05:09;3.45;;;1.23;;
11805;SDS011;5960;42.602;23.482;2022-08-21T02:07:37;0.70;;;0.70;;
11805;SDS011;5960;42.602;23.482;2022-08-21T02:10:05;0.43;;;0.43;;
11805;SDS011;5960;42.602;23.482;2022-08-21T02:12:34;1.25;;;0.82;;
11805;SDS011;5960;42.602;23.482;2022-08-21T02:15:02;0.70;;;0.63;;
11805;SDS011;5960;42.602;23.482;2022-08-21T02:17:36;0.77;;;0.75;;
11805;SDS011;5960;42.602;23.482;2022-08-21T02:20:04;1.55;;;1.45;;
11805;SDS011;5960;42.602;23.482;2022-08-21T02:22:32;0.73;;;0.73;;
11805;SDS011;5960;42.602;23.482;2022-08-21T02:24:58;0.80;;;0.80;;
11805;SDS011;5960;42.602;23.482;2022-08-21T02:27:25;1.23;;;0.82;;
11805;SDS011;5960;42.602;23.482;2022-08-21T02:29:52;0.98;;;0.88;;
11805;SDS011;5960;42.602;23.482;2022-08-21T02:32:21;1.30;;;0.70;;
11805;SDS011;5960;42.602;23.482;2022-08-21T02:34:47;0.70;;;0.63;;
11805;SDS011;5960;42.602;23.482;2022-08-21T02:37:14;1.15;;;1.05;;
11805;SDS011;5960;42.602;23.482;2022-08-21T02:39:41;0.50;;;0.50;;
11805;SDS011;5960;42.602;23.482;2022-08-21T02:42:08;0.88;;;0.80;;
11805;SDS011;5960;42.602;23.482;2022-08-21T02:44:35;1.20;;;0.85;;
11805;SDS011;5960;42.602;23.482;2022-08-21T02:47:01;1.25;;;1.10;;
11805;SDS011;5960;42.602;23.482;2022-08-21T02:49:29;2.70;;;1.05;;
11805;SDS011;5960;42.602;23.482;2022-08-21T02:51:56;2.33;;;0.90;;
11805;SDS011;5960;42.602;23.482;2022-08-21T02:54:23;0.60;;;0.60;;
11805;SDS011;5960;42.602;23.482;2022-08-21T02:56:50;0.60;;;0.60;;
11805;SDS011;5960;42.602;23.482;2022-08-21T02:59:16;1.25;;;0.88;;
11805;SDS011;5960;42.602;23.482;2022-08-21T03:01:43;0.60;;;0.60;;
11805;SDS011;5960;42.602;23.482;2022-08-21T03:04:10;3.67;;;1.35;;
11805;SDS011;5960;42.602;23.482;2022-08-21T03:06:38;0.85;;;0.85;;
11805;SDS011;5960;42.602;23.482;2022-08-21T03:09:05;1.08;;;0.95;;
11805;SDS011;5960;42.602;23.482;2022-08-21T03:11:31;0.75;;;0.70;;
11805;SDS011;5960;42.602;23.482;2022-08-21T03:13:58;0.93;;;0.68;;
11805;SDS011;5960;42.602;23.482;2022-08-21T03:16:25;1.15;;;1.05;;
11805;SDS011;5960;42.602;23.482;2022-08-21T03:18:52;2.42;;;1.20;;
11805;SDS011;5960;42.602;23.482;2022-08-21T03:21:18;1.23;;;0.60;;
11805;SDS011;5960;42.602;23.482;2022-08-21T03:23:46;1.00;;;0.85;;
11805;SDS011;5960;42.602;23.482;2022-08-21T03:26:13;0.63;;;0.63;;
11805;SDS011;5960;42.602;23.482;2022-08-21T03:28:40;0.70;;;0.68;;
11805;SDS011;5960;42.602;23.482;2022-08-21T03:31:07;0.70;;;0.70;;
11805;SDS011;5960;42.602;23.482;2022-08-21T03:33:33;0.75;;;0.70;;
11805;SDS011;5960;42.602;23.482;2022-08-21T03:36:01;0.68;;;0.65;;
11805;SDS011;5960;42.602;23.482;2022-08-21T03:38:31;1.00;;;0.70;;
11805;SDS011;5960;42.602;23.482;2022-08-21T03:41:00;1.10;;;0.90;;
11805;SDS011;5960;42.602;23.482;2022-08-21T03:43:28;0.85;;;0.70;;
11805;SDS011;5960;42.602;23.482;2022-08-21T03:45:54;0.68;;;0.68;;
11805;SDS011;5960;42.602;23.482;2022-08-21T03:48:21;0.65;;;0.60;;
11805;SDS011;5960;42.602;23.482;2022-08-21T03:50:48;1.33;;;1.02;;
11805;SDS011;5960;42.602;23.482;2022-08-21T03:53:18;1.30;;;0.82;;
11805;SDS011;5960;42.602;23.482;2022-08-21T03:55:46;1.00;;;0.80;;
11805;SDS011;5960;42.602;23.482;2022-08-21T03:58:15;1.75;;;1.10;;
11805;SDS011;5960;42.602;23.482;2022-08-21T04:00:44;0.57;;;0.57;;
11805;SDS011;5960;42.602;23.482;2022-08-21T04:03:12;1.08;;;0.98;;
11805;SDS011;5960;42.602;23.482;2022-08-21T04:05:38;0.80;;;0.80;;
11805;SDS011;5960;42.602;23.482;2022-08-21T04:08:06;1.33;;;0.73;;
11805;SDS011;5960;42.602;23.482;2022-08-21T04:10:34;0.75;;;0.50;;
11805;SDS011;5960;42.602;23.482;2022-08-21T04:13:02;0.50;;;0.50;;
11805;SDS011;5960;42.602;23.482;2022-08-21T04:15:31;1.95;;;1.13;;
11805;SDS011;5960;42.602;23.482;2022-08-21T04:17:59;1.70;;;0.88;;
11805;SDS011;5960;42.602;23.482;2022-08-21T04:20:26;1.23;;;1.00;;
11805;SDS011;5960;42.602;23.482;2022-08-21T04:22:53;1.15;;;0.68;;
11805;SDS011;5960;42.602;23.482;2022-08-21T04:25:20;0.90;;;0.90;;
11805;SDS011;5960;42.602;23.482;2022-08-21T04:27:49;2.22;;;1.15;;
11805;SDS011;5960;42.602;23.482;2022-08-21T04:30:16;1.55;;;0.93;;
11805;SDS011;5960;42.602;23.482;2022-08-21T04:32:44;0.47;;;0.47;;
11805;SDS011;5960;42.602;23.482;2022-08-21T04:35:13;2.22;;;0.98;;
11805;SDS011;5960;42.602;23.482;2022-08-21T04:37:42;0.50;;;0.50;;
11805;SDS011;5960;42.602;23.482;2022-08-21T04:40:09;0.80;;;0.80;;
11805;SDS011;5960;42.602;23.482;2022-08-21T04:42:40;1.73;;;1.08;;
11805;SDS011;5960;42.602;23.482;2022-08-21T04:45:14;0.70;;;0.70;;
11805;SDS011;5960;42.602;23.482;2022-08-21T04:47:46;0.70;;;0.70;;
11805;SDS011;5960;42.602;23.482;2022-08-21T04:50:14;1.13;;;1.02;;
11805;SDS011;5960;42.602;23.482;2022-08-21T04:52:40;1.00;;;0.68;;
11805;SDS011;5960;42.602;23.482;2022-08-21T04:55:07;1.38;;;1.05;;
11805;SDS011;5960;42.602;23.482;2022-08-21T04:57:34;1.25;;;0.80;;
11805;SDS011;5960;42.602;23.482;2022-08-21T05:00:04;1.05;;;0.95;;
11805;SDS011;5960;42.602;23.482;2022-08-21T05:02:32;2.38;;;1.15;;
11805;SDS011;5960;42.602;23.482;2022-08-21T05:05:01;1.33;;;0.98;;
11805;SDS011;5960;42.602;23.482;2022-08-21T05:07:28;1.23;;;1.13;;
11805;SDS011;5960;42.602;23.482;2022-08-21T05:09:57;1.27;;;1.08;;
11805;SDS011;5960;42.602;23.482;2022-08-21T05:12:26;1.02;;;0.93;;
11805;SDS011;5960;42.602;23.482;2022-08-21T05:14:53;0.90;;;0.90;;
11805;SDS011;5960;42.602;23.482;2022-08-21T05:17:19;1.20;;;1.10;;
11805;SDS011;5960;42.602;23.482;2022-08-21T05:19:46;0.85;;;0.85;;
11805;SDS011;5960;42.602;23.482;2022-08-21T05:22:19;1.75;;;0.68;;
11805;SDS011;5960;42.602;23.482;2022-08-21T05:24:47;0.80;;;0.80;;
11805;SDS011;5960;42.602;23.482;2022-08-21T05:27:13;3.50;;;1.35;;
11805;SDS011;5960;42.602;23.482;2022-08-21T05:29:40;2.95;;;1.25;;
11805;SDS011;5960;42.602;23.482;2022-08-21T05:32:08;1.48;;;1.23;;
11805;SDS011;5960;42.602;23.482;2022-08-21T05:34:35;2.05;;;1.63;;
11805;SDS011;5960;42.602;23.482;2022-08-21T05:37:02;1.33;;;1.15;;
11805;SDS011;5960;42.602;23.482;2022-08-21T05:39:31;1.73;;;1.33;;
11805;SDS011;5960;42.602;23.482;2022-08-21T05:41:58;1.38;;;1.27;;
11805;SDS011;5960;42.602;23.482;2022-08-21T05:44:24;1.20;;;1.10;;
11805;SDS011;5960;42.602;23.482;2022-08-21T05:46:51;2.05;;;0.95;;
11805;SDS011;5960;42.602;23.482;2022-08-21T05:49:18;1.48;;;1.00;;
11805;SDS011;5960;42.602;23.482;2022-08-21T05:51:45;1.52;;;1.27;;
11805;SDS011;5960;42.602;23.482;2022-08-21T05:54:11;0.75;;;0.75;;
11805;SDS011;5960;42.602;23.482;2022-08-21T05:56:39;1.30;;;1.10;;
11805;SDS011;5960;42.602;23.482;2022-08-21T05:59:09;1.48;;;1.10;;
11805;SDS011;5960;42.602;23.482;2022-08-21T06:01:38;1.20;;;1.10;;
11805;SDS011;5960;42.602;23.482;2022-08-21T06:04:05;1.95;;;1.42;;
11805;SDS011;5960;42.602;23.482;2022-08-21T06:06:32;1.20;;;1.10;;
11805;SDS011;5960;42.602;23.482;2022-08-21T06:08:59;2.38;;;1.10;;
11805;SDS011;5960;42.602;23.482;2022-08-21T06:11:25;2.33;;;1.40;;
11805;SDS011;5960;42.602;23.482;2022-08-21T06:13:53;1.38;;;1.13;;
11805;SDS011;5960;42.602;23.482;2022-08-21T06:16:20;2.13;;;1.67;;
11805;SDS011;5960;42.602;23.482;2022-08-21T06:18:48;1.70;;;1.60;;
11805;SDS011;5960;42.602;23.482;2022-08-21T06:21:15;4.32;;;1.88;;
11805;SDS011;5960;42.602;23.482;2022-08-21T06:23:42;1.73;;;1.50;;
11805;SDS011;5960;42.602;23.482;2022-08-21T06:26:10;1.95;;;1.50;;
11805;SDS011;5960;42.602;23.482;2022-08-21T06:28:38;1.83;;;1.48;;
11805;SDS011;5960;42.602;23.482;2022-08-21T06:31:11;4.03;;;1.42;;
11805;SDS011;5960;42.602;23.482;2022-08-21T06:33:39;2.40;;;1.70;;
11805;SDS011;5960;42.602;23.482;2022-08-21T06:36:06;1.90;;;1.67;;
11805;SDS011;5960;42.602;23.482;2022-08-21T06:38:33;2.72;;;1.65;;
11805;SDS011;5960;42.602;23.482;2022-08-21T06:41:00;1.83;;;1.48;;
11805;SDS011;5960;42.602;23.482;2022-08-21T06:43:27;2.05;;;1.58;;
11805;SDS011;5960;42.602;23.482;2022-08-21T06:45:54;2.05;;;1.85;;
11805;SDS011;5960;42.602;23.482;2022-08-21T06:48:22;2.38;;;2.03;;
11805;SDS011;5960;42.602;23.482;2022-08-21T06:50:49;2.20;;;2.00;;
11805;SDS011;5960;42.602;23.482;2022-08-21T06:53:19;1.70;;;1.40;;
11805;SDS011;5960;42.602;23.482;2022-08-21T06:55:47;1.75;;;1.60;;
11805;SDS011;5960;42.602;23.482;2022-08-21T06:58:14;2.22;;;1.85;;
11805;SDS011;5960;42.602;23.482;2022-08-21T07:00:44;1.30;;;1.20;;
11805;SDS011;5960;42.602;23.482;2022-08-21T07:03:20;1.75;;;1.40;;
11805;SDS011;5960;42.602;23.482;2022-08-21T07:05:49;1.63;;;1.52;;
11805;SDS011;5960;42.602;23.482;2022-08-21T07:08:17;2.10;;;1.42;;
11805;SDS011;5960;42.602;23.482;2022-08-21T07:10:44;2.85;;;2.13;;
11805;SDS011;5960;42.602;23.482;2022-08-21T07:13:11;4.28;;;1.38;;
11805;SDS011;5960;42.602;23.482;2022-08-21T07:15:38;2.35;;;1.83;;
11805;SDS011;5960;42.602;23.482;2022-08-21T07:18:05;2.20;;;2.00;;
11805;SDS011;5960;42.602;23.482;2022-08-21T07:20:33;1.35;;;1.25;;
11805;SDS011;5960;42.602;23.482;2022-08-21T07:23:01;1.30;;;1.10;;
11805;SDS011;5960;42.602;23.482;2022-08-21T07:25:31;1.30;;;1.20;;
11805;SDS011;5960;42.602;23.482;2022-08-21T07:27:58;1.75;;;1.35;;
11805;SDS011;5960;42.602;23.482;2022-08-21T07:30:25;1.58;;;1.42;;
11805;SDS011;5960;42.602;23.482;2022-08-21T07:32:52;4.95;;;1.48;;
11805;SDS011;5960;42.602;23.482;2022-08-21T07:35:20;2.47;;;1.30;;
11805;SDS011;5960;42.602;23.482;2022-08-21T07:37:48;1.80;;;1.70;;
11805;SDS011;5960;42.602;23.482;2022-08-21T07:40:15;2.05;;;1.58;;
11805;SDS011;5960;42.602;23.482;2022-08-21T07:42:44;1.75;;;1.65;;
11805;SDS011;5960;42.602;23.482;2022-08-21T07:45:15;1.52;;;1.38;;
11805;SDS011;5960;42.602;23.482;2022-08-21T07:47:42;4.03;;;1.60;;
11805;SDS011;5960;42.602;23.482;2022-08-21T07:50:09;2.38;;;1.80;;
11805;SDS011;5960;42.602;23.482;2022-08-21T07:52:37;3.03;;;1.83;;
11805;SDS011;5960;42.602;23.482;2022-08-21T07:55:06;3.20;;;1.52;;
11805;SDS011;5960;42.602;23.482;2022-08-21T07:57:33;1.98;;;1.60;;
11805;SDS011;5960;42.602;23.482;2022-08-21T08:00:00;2.20;;;1.85;;
11805;SDS011;5960;42.602;23.482;2022-08-21T08:02:28;2.33;;;1.52;;
11805;SDS011;5960;42.602;23.482;2022-08-21T08:04:58;1.23;;;1.13;;
11805;SDS011;5960;42.602;23.482;2022-08-21T08:07:25;2.33;;;1.55;;
11805;SDS011;5960;42.602;23.482;2022-08-21T08:09:52;1.23;;;1.13;;
11805;SDS011;5960;42.602;23.482;2022-08-21T08:12:21;1.55;;;1.30;;
11805;SDS011;5960;42.602;23.482;2022-08-21T08:14:48;1.50;;;1.40;;
11805;SDS011;5960;42.602;23.482;2022-08-21T08:17:14;1.60;;;1.50;;
11805;SDS011;5960;42.602;23.482;2022-08-21T08:19:41;1.88;;;1.40;;
11805;SDS011;5960;42.602;23.482;2022-08-21T08:22:14;4.60;;;1.52;;
11805;SDS011;5960;42.602;23.482;2022-08-21T08:24:44;3.45;;;1.60;;
11805;SDS011;5960;42.602;23.482;2022-08-21T08:27:11;1.63;;;1.30;;
11805;SDS011;5960;42.602;23.482;2022-08-21T08:29:39;1.65;;;1.52;;
11805;SDS011;5960;42.602;23.482;2022-08-21T08:32:06;1.60;;;1.10;;
11805;SDS011;5960;42.602;23.482;2022-08-21T08:34:33;3.78;;;1.90;;
11805;SDS011;5960;42.602;23.482;2022-08-21T08:37:00;1.83;;;1.70;;
11805;SDS011;5960;42.602;23.482;2022-08-21T08:39:28;1.70;;;1.60;;
11805;SDS011;5960;42.602;23.482;2022-08-21T08:41:56;3.08;;;1.55;;
11805;SDS011;5960;42.602;23.482;2022-08-21T08:44:28;1.58;;;1.42;;
11805;SDS011;5960;42.602;23.482;2022-08-21T08:46:57;1.27;;;1.17;;
11805;SDS011;5960;42.602;23.482;2022-08-21T08:49:27;1.80;;;1.50;;
11805;SDS011;5960;42.602;23.482;2022-08-21T08:51:59;2.03;;;1.20;;
11805;SDS011;5960;42.602;23.482;2022-08-21T08:54:28;1.30;;;1.20;;
11805;SDS011;5960;42.602;23.482;2022-08-21T08:57:00;1.60;;;1.40;;
11805;SDS011;5960;42.602;23.482;2022-08-21T08:59:32;2.97;;;1.30;;
11805;SDS011;5960;42.602;23.482;2022-08-21T09:02:05;1.42;;;1.20;;
11805;SDS011;5960;42.602;23.482;2022-08-21T09:04:34;3.58;;;2.22;;
11805;SDS011;5960;42.602;23.482;2022-08-21T09:07:04;4.05;;;2.60;;
11805;SDS011;5960;42.602;23.482;2022-08-21T09:09:41;3.40;;;2.50;;
11805;SDS011;5960;42.602;23.482;2022-08-21T09:12:31;2.92;;;2.03;;
11805;SDS011;5960;42.602;23.482;2022-08-21T09:15:06;1.55;;;1.42;;
11805;SDS011;5960;42.602;23.482;2022-08-21T09:17:44;2.67;;;1.85;;
11805;SDS011;5960;42.602;23.482;2022-08-21T09:20:29;1.83;;;1.67;;
11805;SDS011;5960;42.602;23.482;2022-08-21T09:23:05;1.95;;;1.83;;
11805;SDS011;5960;42.602;23.482;2022-08-21T09:25:53;1.20;;;1.10;;
11805;SDS011;5960;42.602;23.482;2022-08-21T09:28:25;0.70;;;0.70;;
11805;SDS011;5960;42.602;23.482;2022-08-21T09:30:54;1.20;;;1.10;;
11805;SDS011;5960;42.602;23.482;2022-08-21T09:33:24;3.03;;;2.15;;
11805;SDS011;5960;42.602;23.482;2022-08-21T09:35:51;2.63;;;1.67;;
11805;SDS011;5960;42.602;23.482;2022-08-21T09:38:27;5.00;;;3.15;;
11805;SDS011;5960;42.602;23.482;2022-08-21T09:40:59;1.92;;;1.83;;
11805;SDS011;5960;42.602;23.482;2022-08-21T09:43:28;2.42;;;1.80;;
11805;SDS011;5960;42.602;23.482;2022-08-21T09:46:03;1.30;;;1.20;;
11805;SDS011;5960;42.602;23.482;2022-08-21T09:48:39;5.13;;;2.30;;
11805;SDS011;5960;42.602;23.482;2022-08-21T09:51:10;1.40;;;1.30;;
11805;SDS011;5960;42.602;23.482;2022-08-21T09:53:41;1.35;;;1.15;;
11805;SDS011;5960;42.602;23.482;2022-08-21T09:59:19;5.32;;;1.65;;
11805;SDS011;5960;42.602;23.482;2022-08-21T10:01:52;3.30;;;2.03;;
11805;SDS011;5960;42.602;23.482;2022-08-21T10:04:22;2.17;;;1.42;;
11805;SDS011;5960;42.602;23.482;2022-08-21T10:07:05;2.97;;;1.27;;
11805;SDS011;5960;42.602;23.482;2022-08-21T10:09:33;2.90;;;2.20;;
11805;SDS011;5960;42.602;23.482;2022-08-21T10:12:06;4.88;;;1.70;;
11805;SDS011;5960;42.602;23.482;2022-08-21T10:14:53;1.30;;;1.05;;
11805;SDS011;5960;42.602;23.482;2022-08-21T10:17:31;3.40;;;2.03;;
11805;SDS011;5960;42.602;23.482;2022-08-21T10:20:11;1.52;;;1.20;;
11805;SDS011;5960;42.602;23.482;2022-08-21T10:22:45;2.28;;;1.40;;
11805;SDS011;5960;42.602;23.482;2022-08-21T10:25:19;2.63;;;1.42;;
11805;SDS011;5960;42.602;23.482;2022-08-21T10:27:53;1.65;;;1.42;;
11805;SDS011;5960;42.602;23.482;2022-08-21T10:30:29;2.67;;;1.10;;
11805;SDS011;5960;42.602;23.482;2022-08-21T10:33:06;1.40;;;1.13;;
11805;SDS011;5960;42.602;23.482;2022-08-21T10:35:50;1.88;;;1.52;;
11805;SDS011;5960;42.602;23.482;2022-08-21T10:41:28;2.60;;;1.70;;
11805;SDS011;5960;42.602;23.482;2022-08-21T10:44:05;4.88;;;1.63;;
11805;SDS011;5960;42.602;23.482;2022-08-21T10:46:43;3.22;;;1.80;;
11805;SDS011;5960;42.602;23.482;2022-08-21T10:49:21;2.13;;;1.50;;
11805;SDS011;5960;42.602;23.482;2022-08-21T10:52:05;1.42;;;1.33;;
11805;SDS011;5960;42.602;23.482;2022-08-21T10:54:49;1.65;;;1.30;;
11805;SDS011;5960;42.602;23.482;2022-08-21T10:57:22;1.65;;;1.40;;
11805;SDS011;5960;42.602;23.482;2022-08-21T10:59:57;1.38;;;1.20;;
11805;SDS011;5960;42.602;23.482;2022-08-21T11:02:29;2.72;;;1.63;;
11805;SDS011;5960;42.602;23.482;2022-08-21T11:05:01;2.55;;;1.90;;
11805;SDS011;5960;42.602;23.482;2022-08-21T11:07:34;2.30;;;1.80;;
11805;SDS011;5960;42.602;23.482;2022-08-21T11:10:05;2.17;;;1.55;;
11805;SDS011;5960;42.602;23.482;2022-08-21T11:12:39;2.45;;;2.00;;
11805;SDS011;5960;42.602;23.482;2022-08-21T11:15:23;1.92;;;1.70;;
11805;SDS011;5960;42.602;23.482;2022-08-21T11:17:54;3.03;;;2.22;;
11805;SDS011;5960;42.602;23.482;2022-08-21T11:20:28;2.42;;;1.85;;
11805;SDS011;5960;42.602;23.482;2022-08-21T11:23:07;6.22;;;1.58;;
11805;SDS011;5960;42.602;23.482;2022-08-21T11:25:41;2.65;;;1.45;;
11805;SDS011;5960;42.602;23.482;2022-08-21T11:28:15;2.10;;;1.90;;
11805;SDS011;5960;42.602;23.482;2022-08-21T11:30:52;2.88;;;1.95;;
11805;SDS011;5960;42.602;23.482;2022-08-21T11:33:42;2.13;;;1.70;;
11805;SDS011;5960;42.602;23.482;2022-08-21T11:36:22;2.35;;;2.08;;
11805;SDS011;5960;42.602;23.482;2022-08-21T11:39:02;2.28;;;1.77;;
11805;SDS011;5960;42.602;23.482;2022-08-21T11:41:40;3.20;;;2.08;;
11805;SDS011;5960;42.602;23.482;2022-08-21T11:44:16;1.77;;;1.40;;
11805;SDS011;5960;42.602;23.482;2022-08-21T11:46:49;2.03;;;1.83;;
11805;SDS011;5960;42.602;23.482;2022-08-21T11:49:29;2.28;;;1.60;;
11805;SDS011;5960;42.602;23.482;2022-08-21T11:52:07;2.15;;;1.50;;
11805;SDS011;5960;42.602;23.482;2022-08-21T11:54:40;1.42;;;1.33;;
11805;SDS011;5960;42.602;23.482;2022-08-21T11:57:14;4.03;;;1.60;;
11805;SDS011;5960;42.602;23.482;2022-08-21T11:59:48;2.53;;;1.80;;
11805;SDS011;5960;42.602;23.482;2022-08-21T12:02:19;2.40;;;2.03;;
11805;SDS011;5960;42.602;23.482;2022-08-21T12:04:49;1.75;;;1.55;;
11805;SDS011;5960;42.602;23.482;2022-08-21T12:07:28;2.47;;;1.85;;
11805;SDS011;5960;42.602;23.482;2022-08-21T12:10:00;2.13;;;1.65;;
11805;SDS011;5960;42.602;23.482;2022-08-21T12:12:30;2.38;;;1.73;;
11805;SDS011;5960;42.602;23.482;2022-08-21T12:15:13;1.90;;;1.58;;
11805;SDS011;5960;42.602;23.482;2022-08-21T12:17:51;3.80;;;2.25;;
11805;SDS011;5960;42.602;23.482;2022-08-21T12:20:23;4.40;;;1.70;;
11805;SDS011;5960;42.602;23.482;2022-08-21T12:23:03;2.40;;;1.45;;
11805;SDS011;5960;42.602;23.482;2022-08-21T12:25:37;2.08;;;1.88;;
11805;SDS011;5960;42.602;23.482;2022-08-21T12:28:07;2.65;;;1.60;;
11805;SDS011;5960;42.602;23.482;2022-08-21T12:30:36;2.10;;;1.63;;
11805;SDS011;5960;42.602;23.482;2022-08-21T12:33:05;1.60;;;1.23;;
11805;SDS011;5960;42.602;23.482;2022-08-21T12:35:46;2.15;;;1.77;;
11805;SDS011;5960;42.602;23.482;2022-08-21T12:38:15;1.50;;;1.40;;
11805;SDS011;5960;42.602;23.482;2022-08-21T12:40:49;2.22;;;1.60;;
11805;SDS011;5960;42.602;23.482;2022-08-21T12:43:20;1.38;;;1.27;;
11805;SDS011;5960;42.602;23.482;2022-08-21T12:46:01;1.52;;;1.05;;
11805;SDS011;5960;42.602;23.482;2022-08-21T12:48:31;2.22;;;1.88;;
11805;SDS011;5960;42.602;23.482;2022-08-21T12:51:05;5.00;;;2.33;;
11805;SDS011;5960;42.602;23.482;2022-08-21T12:53:40;2.03;;;1.73;;
11805;SDS011;5960;42.602;23.482;2022-08-21T12:56:15;2.28;;;1.40;;
11805;SDS011;5960;42.602;23.482;2022-08-21T12:58:45;2.60;;;1.52;;
11805;SDS011;5960;42.602;23.482;2022-08-21T13:01:16;1.83;;;1.42;;
11805;SDS011;5960;42.602;23.482;2022-08-21T13:03:49;1.83;;;1.73;;
11805;SDS011;5960;42.602;23.482;2022-08-21T13:06:17;1.63;;;1.45;;
11805;SDS011;5960;42.602;23.482;2022-08-21T13:08:47;2.08;;;1.45;;
11805;SDS011;5960;42.602;23.482;2022-08-21T13:11:25;2.10;;;1.52;;
11805;SDS011;5960;42.602;23.482;2022-08-21T13:13:51;2.13;;;1.73;;
11805;SDS011;5960;42.602;23.482;2022-08-21T13:16:21;2.55;;;1.48;;
11805;SDS011;5960;42.602;23.482;2022-08-21T13:18:52;1.52;;;1.10;;
11805;SDS011;5960;42.602;23.482;2022-08-21T13:21:26;2.35;;;1.70;;
11805;SDS011;5960;42.602;23.482;2022-08-21T13:24:13;2.22;;;1.40;;
11805;SDS011;5960;42.602;23.482;2022-08-21T13:26:44;1.63;;;1.17;;
11805;SDS011;5960;42.602;23.482;2022-08-21T13:29:12;2.45;;;1.58;;
11805;SDS011;5960;42.602;23.482;2022-08-21T13:31:42;1.50;;;1.30;;
11805;SDS011;5960;42.602;23.482;2022-08-21T13:34:14;2.05;;;1.27;;
11805;SDS011;5960;42.602;23.482;2022-08-21T13:36:42;1.70;;;1.23;;
11805;SDS011;5960;42.602;23.482;2022-08-21T13:39:11;4.15;;;1.50;;
11805;SDS011;5960;42.602;23.482;2022-08-21T13:41:41;1.73;;;1.35;;
11805;SDS011;5960;42.602;23.482;2022-08-21T13:44:15;2.17;;;1.45;;
11805;SDS011;5960;42.602;23.482;2022-08-21T13:46:43;2.97;;;1.55;;
11805;SDS011;5960;42.602;23.482;2022-08-21T13:49:12;2.83;;;2.10;;
11805;SDS011;5960;42.602;23.482;2022-08-21T13:51:41;1.52;;;1.38;;
11805;SDS011;5960;42.602;23.482;2022-08-21T13:54:15;2.08;;;1.30;;
11805;SDS011;5960;42.602;23.482;2022-08-21T13:56:49;1.38;;;1.27;;
11805;SDS011;5960;42.602;23.482;2022-08-21T13:59:26;2.20;;;1.48;;
11805;SDS011;5960;42.602;23.482;2022-08-21T14:01:55;1.15;;;1.10;;
11805;SDS011;5960;42.602;23.482;2022-08-21T14:04:26;2.03;;;1.50;;
11805;SDS011;5960;42.602;23.482;2022-08-21T14:06:59;1.83;;;1.58;;
11805;SDS011;5960;42.602;23.482;2022-08-21T14:09:28;2.20;;;1.48;;
11805;SDS011;5960;42.602;23.482;2022-08-21T14:11:58;1.85;;;1.15;;
11805;SDS011;5960;42.602;23.482;2022-08-21T14:14:28;1.45;;;1.00;;
11805;SDS011;5960;42.602;23.482;2022-08-21T14:16:58;2.92;;;1.30;;
11805;SDS011;5960;42.602;23.482;2022-08-21T14:19:28;2.78;;;1.50;;
11805;SDS011;5960;42.602;23.482;2022-08-21T14:25:05;1.00;;;0.90;;
11805;SDS011;5960;42.602;23.482;2022-08-21T14:27:36;1.60;;;1.48;;
11805;SDS011;5960;42.602;23.482;2022-08-21T14:30:09;2.80;;;1.38;;
11805;SDS011;5960;42.602;23.482;2022-08-21T14:32:38;1.40;;;1.30;;
11805;SDS011;5960;42.602;23.482;2022-08-21T14:35:07;1.45;;;1.15;;
11805;SDS011;5960;42.602;23.482;2022-08-21T14:37:35;1.48;;;1.38;;
11805;SDS011;5960;42.602;23.482;2022-08-21T14:40:03;1.17;;;1.05;;
11805;SDS011;5960;42.602;23.482;2022-08-21T14:42:30;1.40;;;1.30;;
11805;SDS011;5960;42.602;23.482;2022-08-21T14:45:00;2.65;;;2.05;;
11805;SDS011;5960;42.602;23.482;2022-08-21T14:47:34;1.77;;;1.48;;
11805;SDS011;5960;42.602;23.482;2022-08-21T14:50:02;1.95;;;1.40;;
11805;SDS011;5960;42.602;23.482;2022-08-21T14:52:29;1.38;;;1.20;;
11805;SDS011;5960;42.602;23.482;2022-08-21T14:54:56;1.33;;;1.20;;
11805;SDS011;5960;42.602;23.482;2022-08-21T14:57:22;4.22;;;2.42;;
11805;SDS011;5960;42.602;23.482;2022-08-21T14:59:53;3.33;;;1.63;;
11805;SDS011;5960;42.602;23.482;2022-08-21T15:02:21;3.08;;;1.30;;
11805;SDS011;5960;42.602;23.482;2022-08-21T15:04:48;2.00;;;1.15;;
11805;SDS011;5960;42.602;23.482;2022-08-21T15:07:14;3.30;;;1.92;;
11805;SDS011;5960;42.602;23.482;2022-08-21T15:09:41;2.55;;;1.77;;
11805;SDS011;5960;42.602;23.482;2022-08-21T15:12:08;1.60;;;1.50;;
11805;SDS011;5960;42.602;23.482;2022-08-21T15:14:36;2.17;;;1.90;;